Time;durP1;ratioP1;P1;durP2;ratioP2;P2;SDS_P1;SDS_P2;PMS_P1;PMS_P2;Temp;Humidity;BMP_temperature;BMP_pressure;BME280_temperature;BME280_humidity;BME280_pressure;Samples;Min_cycle;Max_cycle;Signal;HPM_P1;HPM_P2
2021/05/18 00:00:19;;;;;;;1.60;1.40;;;21.00;90.80;;;;;;5143617;27;20484;-41
2021/05/18 00:02:50;;;;;;;1.70;1.37;;;20.90;90.50;;;;;;5144875;27;20487;-42
2021/05/18 00:05:21;;;;;;;8.43;4.97;;;20.70;90.70;;;;;;5144054;27;20434;-41
2021/05/18 00:07:57;;;;;;;4.70;1.73;;;20.60;91.50;;;;;;5144743;27;20517;-41
2021/05/18 00:13:18;;;;;;;2.00;1.63;;;20.80;91.60;;;;;;5143631;27;20415;-42
2021/05/18 00:15:49;;;;;;;1.97;1.30;;;20.80;91.50;;;;;;5142558;27;20428;-42
2021/05/18 00:18:20;;;;;;;1.60;1.50;;;20.80;91.20;;;;;;5144367;27;20451;-42
2021/05/18 00:20:51;;;;;;;1.57;1.47;;;20.60;91.60;;;;;;5143357;27;20536;-41
2021/05/18 00:23:22;;;;;;;2.63;1.40;;;20.30;92.00;;;;;;5144424;27;20435;-41
2021/05/18 00:25:53;;;;;;;1.77;1.57;;;20.20;92.50;;;;;;5143529;27;20407;-42
2021/05/18 00:28:24;;;;;;;1.83;1.20;;;20.00;92.10;;;;;;5126185;27;20454;-42
2021/05/18 00:30:57;;;;;;;3.47;1.40;;;19.80;92.90;;;;;;5143886;27;20420;-42
2021/05/18 00:33:30;;;;;;;2.77;1.60;;;19.70;92.10;;;;;;5144335;27;20504;-42
2021/05/18 00:36:01;;;;;;;2.33;1.20;;;19.50;91.90;;;;;;5144084;27;20449;-42
2021/05/18 00:38:33;;;;;;;1.90;1.53;;;19.20;91.70;;;;;;5142869;27;21566;-41
2021/05/18 00:41:04;;;;;;;1.30;1.20;;;19.20;91.60;;;;;;5144279;27;20571;-43
2021/05/18 00:43:35;;;;;;;4.27;1.40;;;19.10;91.30;;;;;;5143146;27;20475;-42
2021/05/18 00:46:06;;;;;;;2.50;1.23;;;19.20;90.90;;;;;;5143324;27;20455;-41
2021/05/18 00:48:37;;;;;;;2.00;1.20;;;19.10;90.30;;;;;;5127598;27;20432;-42
2021/05/18 00:51:11;;;;;;;2.40;1.47;;;19.00;88.50;;;;;;5141891;27;20434;-42
2021/05/18 00:53:43;;;;;;;3.83;1.00;;;19.00;90.10;;;;;;5143427;27;20509;-42
2021/05/18 00:56:21;;;;;;;2.70;1.30;;;19.00;87.30;;;;;;5141182;27;20457;-43
2021/05/18 00:58:55;;;;;;;1.30;1.20;;;19.10;85.70;;;;;;5142940;27;20533;-43
2021/05/18 01:01:26;;;;;;;3.43;1.10;;;19.20;82.10;;;;;;5143147;27;20518;-42
2021/05/18 01:03:57;;;;;;;1.87;0.80;;;19.10;78.40;;;;;;5143441;27;20458;-42
2021/05/18 01:06:29;;;;;;;1.90;1.07;;;18.80;78.60;;;;;;5142332;27;20502;-42
2021/05/18 01:09:07;;;;;;;1.47;0.87;;;18.80;81.70;;;;;;5132441;28;20505;-42
2021/05/18 01:11:40;;;;;;;1.33;1.23;;;18.70;80.50;;;;;;5143138;28;20893;-42
2021/05/18 01:14:14;;;;;;;1.40;0.97;;;18.60;81.10;;;;;;5142647;28;20429;-42
2021/05/18 01:16:47;;;;;;;3.10;1.23;;;18.50;82.00;;;;;;5143562;28;20432;-42
2021/05/18 01:19:19;;;;;;;1.93;1.27;;;18.40;83.10;;;;;;5143034;28;20480;-42
2021/05/18 01:21:52;;;;;;;0.90;0.80;;;18.40;83.30;;;;;;5142503;28;20815;-41
2021/05/18 01:24:22;;;;;;;4.13;1.20;;;18.50;84.40;;;;;;5142377;28;20441;-42
2021/05/18 01:26:53;;;;;;;0.97;0.77;;;18.30;86.00;;;;;;5136710;28;20858;-43
2021/05/18 01:29:23;;;;;;;2.07;1.33;;;18.20;87.20;;;;;;5141845;28;20456;-41
2021/05/18 01:31:54;;;;;;;3.13;1.73;;;18.10;88.40;;;;;;5145485;27;20444;-42
2021/05/18 01:34:24;;;;;;;3.27;1.90;;;18.10;88.60;;;;;;5141369;27;20421;-42
2021/05/18 01:36:56;;;;;;;3.00;1.70;;;17.90;90.00;;;;;;5147454;27;20449;-42
2021/05/18 01:39:45;;;;;;;1.70;1.00;;;17.50;89.70;;;;;;5126982;28;20496;-42
2021/05/18 01:45:09;;;;;;;1.80;1.70;;;17.50;90.70;;;;;;5146258;27;20468;-42
2021/05/18 01:47:41;;;;;;;3.73;2.90;;;17.50;90.70;;;;;;5147041;27;20476;-41
2021/05/18 01:50:13;;;;;;;2.87;1.70;;;17.40;91.30;;;;;;5146555;27;20497;-43
2021/05/18 01:52:45;;;;;;;2.13;1.50;;;17.30;91.10;;;;;;5146993;27;20456;-40
2021/05/18 01:55:24;;;;;;;4.90;2.03;;;17.20;92.00;;;;;;5146381;27;20483;-41
2021/05/18 01:57:55;;;;;;;2.10;1.90;;;17.10;92.50;;;;;;5146407;27;20579;-41
2021/05/18 02:00:29;;;;;;;2.13;2.00;;;17.00;92.80;;;;;;5146240;27;20472;-40
2021/05/18 02:03:00;;;;;;;3.10;1.97;;;16.80;93.00;;;;;;5146068;27;20484;-40
2021/05/18 02:05:33;;;;;;;2.03;1.83;;;16.80;93.30;;;;;;5146569;27;20518;-42
2021/05/18 02:08:06;;;;;;;3.40;2.63;;;16.60;94.00;;;;;;5147020;27;20813;-43
2021/05/18 02:10:36;;;;;;;1.70;1.60;;;16.60;93.90;;;;;;5146529;27;20553;-40
2021/05/18 02:13:07;;;;;;;4.10;2.30;;;16.50;94.20;;;;;;5138424;27;20468;-41
2021/05/18 02:15:45;;;;;;;1.80;1.20;;;16.40;94.70;;;;;;5145736;27;20514;-41
2021/05/18 02:18:35;;;;;;;1.00;1.00;;;16.30;94.90;;;;;;5147032;27;20464;-41
2021/05/18 02:21:22;;;;;;;1.00;1.00;;;16.30;95.30;;;;;;5147689;27;20460;-42
2021/05/18 02:26:42;;;;;;;1.43;1.30;;;16.30;95.00;;;;;;5146155;27;20445;-40
2021/05/18 02:29:12;;;;;;;1.40;1.30;;;16.10;95.30;;;;;;5144521;27;20456;-40
2021/05/18 02:31:43;;;;;;;1.20;1.10;;;16.00;95.80;;;;;;5145388;27;20495;-41
2021/05/18 02:34:14;;;;;;;1.30;1.20;;;15.80;95.90;;;;;;5145771;27;20471;-40
2021/05/18 02:36:44;;;;;;;1.90;1.00;;;15.80;96.70;;;;;;5146076;27;20440;-39
2021/05/18 02:39:16;;;;;;;1.87;1.00;;;15.70;96.90;;;;;;5146238;27;20472;-40
2021/05/18 02:41:47;;;;;;;2.53;0.80;;;15.60;97.30;;;;;;5145409;27;20449;-41
2021/05/18 02:44:22;;;;;;;1.93;1.23;;;15.60;97.30;;;;;;5144200;27;20580;-40
2021/05/18 02:49:41;;;;;;;1.10;1.00;;;15.70;97.70;;;;;;5145816;27;20452;-42
2021/05/18 02:52:11;;;;;;;1.57;1.10;;;15.50;98.10;;;;;;5145300;27;20449;-39
2021/05/18 02:54:48;;;;;;;4.07;1.13;;;15.50;98.80;;;;;;5145760;27;20486;-41
2021/05/18 02:57:30;;;;;;;1.50;1.00;;;15.50;98.50;;;;;;5145974;27;20428;-40
2021/05/18 03:00:02;;;;;;;1.13;1.10;;;15.50;99.30;;;;;;5142627;27;21003;-40
2021/05/18 03:02:32;;;;;;;1.17;1.10;;;15.60;99.90;;;;;;5144893;27;20505;-39
2021/05/18 03:05:03;;;;;;;0.90;0.77;;;15.30;99.90;;;;;;5145163;27;20468;-41
2021/05/18 03:07:34;;;;;;;1.40;0.80;;;15.20;99.90;;;;;;5145012;27;20513;-40
2021/05/18 03:10:07;;;;;;;0.90;0.90;;;15.20;99.90;;;;;;5145355;27;20563;-41
2021/05/18 03:12:37;;;;;;;1.73;0.90;;;15.20;99.90;;;;;;5146273;27;20491;-41
2021/05/18 03:15:09;;;;;;;0.77;0.77;;;15.10;99.90;;;;;;5144821;27;20754;-40
2021/05/18 03:17:40;;;;;;;1.10;0.93;;;15.00;99.90;;;;;;5145672;27;20978;-40
2021/05/18 03:20:14;;;;;;;1.37;1.30;;;15.00;99.90;;;;;;5145402;27;20545;-40
2021/05/18 03:22:45;;;;;;;2.60;1.47;;;15.00;99.90;;;;;;5144867;27;20470;-40
2021/05/18 03:25:17;;;;;;;2.13;1.17;;;14.80;99.90;;;;;;5145482;27;20501;-41
2021/05/18 03:27:47;;;;;;;0.77;0.77;;;14.80;99.90;;;;;;5144985;27;20441;-41
2021/05/18 03:30:26;;;;;;;1.43;0.90;;;14.80;99.90;;;;;;5144555;27;20453;-40
2021/05/18 03:35:44;;;;;;;1.37;0.67;;;14.60;99.90;;;;;;5144825;27;20530;-42
2021/05/18 03:38:18;;;;;;;1.00;0.90;;;14.60;99.90;;;;;;5144320;27;20533;-42
2021/05/18 03:40:54;;;;;;;0.70;0.70;;;14.60;99.90;;;;;;5145127;27;20453;-41
2021/05/18 03:43:41;;;;;;;1.53;1.20;;;14.50;99.90;;;;;;5144813;27;20944;-41
2021/05/18 03:52:22;;;;;;;2.00;0.83;;;14.50;99.90;;;;;;5058410;28;20960;-40
2021/05/18 03:55:00;;;;;;;1.53;1.10;;;14.50;99.90;;;;;;5051320;28;20928;-41
2021/05/18 04:03:14;;;;;;;1.87;1.10;;;14.50;99.90;;;;;;5057032;28;20532;-42
2021/05/18 04:17:02;;;;;;;1.00;0.80;;;14.60;99.90;;;;;;5059723;28;20479;-41
2021/05/18 04:19:37;;;;;;;2.23;1.30;;;14.60;99.90;;;;;;5079881;27;20480;-41
2021/05/18 04:22:21;;;;;;;1.30;1.13;;;14.70;99.90;;;;;;5144050;27;20456;-41
2021/05/18 04:39:06;;;;;;;1.20;1.10;;;14.40;99.90;;;;;;5143567;27;20502;-41
2021/05/18 04:42:17;;;;;;;0.90;0.90;;;14.40;99.90;;;;;;5143297;27;20437;-41
2021/05/18 04:50:45;;;;;;;3.30;1.13;;;14.50;99.90;;;;;;5128386;27;20441;-40
2021/05/18 04:53:21;;;;;;;1.00;1.00;;;14.40;99.90;;;;;;5143210;27;20497;-42
2021/05/18 05:01:52;;;;;;;1.40;1.30;;;14.30;99.90;;;;;;5067300;28;20447;-37
2021/05/18 05:07:09;;;;;;;0.97;0.90;;;14.30;99.90;;;;;;5070591;28;20572;-39
2021/05/18 05:09:42;;;;;;;1.03;1.00;;;14.30;99.90;;;;;;5066616;28;20475;-40
2021/05/18 05:15:01;;;;;;;1.40;1.30;;;14.30;99.90;;;;;;5057928;28;20578;-42
2021/05/18 05:17:31;;;;;;;1.03;0.80;;;14.20;99.90;;;;;;5059574;28;20441;-43
2021/05/18 05:20:03;;;;;;;1.23;0.60;;;14.20;99.90;;;;;;5074525;28;20483;-42
2021/05/18 05:22:33;;;;;;;0.83;0.83;;;14.20;99.90;;;;;;5069953;28;20510;-42
2021/05/18 05:25:04;;;;;;;1.00;0.90;;;14.20;99.90;;;;;;5058892;28;20491;-41
2021/05/18 05:27:34;;;;;;;2.50;0.80;;;14.20;99.90;;;;;;5059672;28;20484;-44
2021/05/18 05:30:06;;;;;;;1.37;1.10;;;14.20;99.90;;;;;;5058929;28;20445;-43
2021/05/18 05:32:37;;;;;;;1.27;0.83;;;14.20;99.90;;;;;;5096718;28;20556;-42
2021/05/18 05:35:09;;;;;;;1.70;0.80;;;14.20;99.90;;;;;;5142747;28;20466;-41
2021/05/18 05:37:40;;;;;;;1.90;0.80;;;14.10;99.90;;;;;;5141025;28;20532;-41
2021/05/18 05:40:11;;;;;;;2.80;0.93;;;14.10;99.90;;;;;;5140890;28;20480;-42
2021/05/18 05:42:42;;;;;;;0.97;0.87;;;14.00;99.90;;;;;;5142284;28;20455;-42
2021/05/18 05:45:13;;;;;;;1.00;1.00;;;14.00;99.90;;;;;;5142242;28;20466;-43
2021/05/18 05:47:45;;;;;;;1.00;0.80;;;13.90;99.90;;;;;;5143267;28;20529;-43
2021/05/18 05:50:16;;;;;;;1.93;0.97;;;13.80;99.90;;;;;;5142687;28;20444;-43
2021/05/18 05:52:47;;;;;;;0.70;0.70;;;13.70;99.90;;;;;;5143413;28;20466;-43
2021/05/18 05:55:17;;;;;;;0.80;0.70;;;13.80;99.90;;;;;;5141716;28;20453;-43
2021/05/18 05:57:48;;;;;;;0.93;0.80;;;13.70;99.90;;;;;;5132738;28;20454;-43
2021/05/18 06:00:19;;;;;;;2.03;0.80;;;13.70;99.90;;;;;;5129607;28;20522;-43
2021/05/18 06:02:49;;;;;;;0.77;0.77;;;13.80;99.90;;;;;;5142953;28;20453;-42
2021/05/18 06:05:21;;;;;;;1.57;0.87;;;13.80;99.90;;;;;;5142263;28;20686;-42
2021/05/18 06:07:53;;;;;;;0.50;0.50;;;13.80;99.90;;;;;;5137881;28;20453;-42
2021/05/18 06:10:27;;;;;;;0.50;0.50;;;13.70;99.90;;;;;;5142515;28;20448;-42
2021/05/18 06:46:53;;;;;;;0.40;0.40;;;13.60;99.90;;;;;;5146353;27;20493;-39
2021/05/18 06:49:24;;;;;;;0.40;0.30;;;13.60;99.90;;;;;;5146427;27;20433;-39
2021/05/18 06:51:56;;;;;;;0.60;0.50;;;13.50;99.90;;;;;;5146695;27;20497;-39
2021/05/18 06:54:27;;;;;;;0.50;0.47;;;13.50;99.90;;;;;;5145418;27;20479;-38
2021/05/18 06:57:02;;;;;;;0.30;0.30;;;13.60;99.90;;;;;;5146219;27;20453;-39
2021/05/18 07:02:20;;;;;;;0.40;0.40;;;13.60;99.90;;;;;;5146514;27;20206;-38
2021/05/18 07:04:53;;;;;;;0.43;0.43;;;13.60;99.90;;;;;;5145884;27;20920;-39
2021/05/18 07:07:28;;;;;;;0.50;0.50;;;13.60;99.90;;;;;;5144455;27;20448;-37
2021/05/18 07:09:59;;;;;;;1.17;0.57;;;13.50;99.90;;;;;;5145920;27;20444;-40
2021/05/18 07:12:30;;;;;;;0.30;0.30;;;13.30;99.90;;;;;;5146324;27;20552;-39
2021/05/18 07:15:01;;;;;;;0.50;0.40;;;13.20;99.90;;;;;;5145611;27;20449;-40
2021/05/18 07:17:31;;;;;;;0.57;0.30;;;13.20;99.90;;;;;;5145439;27;20502;-40
2021/05/18 07:20:18;;;;;;;0.50;0.30;;;13.30;99.90;;;;;;5145983;27;20496;-40
2021/05/18 07:22:50;;;;;;;0.40;0.40;;;13.20;99.90;;;;;;5145483;27;20444;-40
2021/05/18 07:25:22;;;;;;;0.40;0.40;;;13.20;99.90;;;;;;5146126;27;20445;-40
2021/05/18 07:27:53;;;;;;;0.40;0.30;;;13.20;99.90;;;;;;5139544;27;20482;-41
2021/05/18 07:30:23;;;;;;;0.47;0.30;;;13.30;99.90;;;;;;5144679;27;20445;-40
2021/05/18 07:32:54;;;;;;;0.50;0.40;;;13.20;99.90;;;;;;5145850;27;20501;-40
2021/05/18 07:35:24;;;;;;;0.50;0.47;;;13.10;99.90;;;;;;5145616;27;20517;-39
2021/05/18 07:37:55;;;;;;;1.37;0.70;;;13.10;99.90;;;;;;5137691;27;20441;-39
2021/05/18 07:40:26;;;;;;;0.40;0.30;;;13.00;99.90;;;;;;5145485;27;20560;-40
2021/05/18 07:43:02;;;;;;;1.23;0.50;;;13.00;99.90;;;;;;5145646;27;20459;-39
2021/05/18 07:45:32;;;;;;;0.40;0.30;;;12.80;99.90;;;;;;5144853;27;20919;-39
2021/05/18 07:48:12;;;;;;;0.43;0.40;;;12.80;99.90;;;;;;5145241;27;20527;-42
2021/05/18 07:50:46;;;;;;;0.50;0.47;;;12.70;99.90;;;;;;5145652;27;20477;-42
2021/05/18 08:07:17;;;;;;;0.90;0.50;;;12.20;99.90;;;;;;5143779;27;20555;-40
2021/05/18 08:09:50;;;;;;;1.38;0.85;;;12.00;99.90;;;;;;5145028;27;20509;-40
2021/05/18 08:12:22;;;;;;;1.80;1.00;;;12.00;99.90;;;;;;5145323;27;20289;-38
2021/05/18 08:15:03;;;;;;;0.93;0.93;;;12.10;99.90;;;;;;5144418;27;20441;-39
2021/05/18 08:17:37;;;;;;;2.08;0.90;;;12.00;99.90;;;;;;5144387;27;20186;-40
2021/05/18 08:20:27;;;;;;;1.50;1.13;;;11.90;99.90;;;;;;5145082;27;20335;-39
2021/05/18 10:35:59;;;;;;;2.22;1.63;;;11.20;99.90;;;;;;5129957;27;20226;-40
2021/05/18 10:38:32;;;;;;;6.55;2.03;;;11.10;99.90;;;;;;5145341;27;20206;-40
2021/05/18 10:41:14;;;;;;;3.10;1.75;;;11.00;99.90;;;;;;5146393;27;20219;-40
2021/05/18 10:43:45;;;;;;;3.90;2.13;;;10.90;99.90;;;;;;5145848;27;20203;-40
2021/05/18 10:46:22;;;;;;;3.80;2.38;;;10.90;99.90;;;;;;5138809;27;20226;-40
2021/05/18 10:49:01;;;;;;;4.40;2.15;;;10.80;99.90;;;;;;5146053;27;20251;-40
2021/05/18 10:51:43;;;;;;;4.47;2.40;;;10.70;99.90;;;;;;5126129;28;20215;-37
2021/05/18 10:54:18;;;;;;;3.80;2.50;;;10.70;99.90;;;;;;5137678;27;20209;-40
2021/05/18 10:57:08;;;;;;;4.95;2.08;;;10.60;99.90;;;;;;5131668;27;20571;-38
2021/05/18 10:59:40;;;;;;;6.13;2.28;;;10.50;99.90;;;;;;5144886;27;20204;-39
2021/05/18 11:02:15;;;;;;;6.57;2.55;;;10.50;99.90;;;;;;5146170;27;20285;-39
2021/05/18 11:04:48;;;;;;;3.88;2.15;;;10.50;99.90;;;;;;5142605;27;20191;-39
2021/05/18 11:07:21;;;;;;;2.83;2.42;;;10.60;99.90;;;;;;5145836;27;20320;-39
2021/05/18 11:09:54;;;;;;;5.40;2.50;;;10.60;99.90;;;;;;5145498;27;20309;-39
2021/05/18 11:12:26;;;;;;;6.43;3.75;;;10.50;99.90;;;;;;5145690;27;20214;-38
2021/05/18 11:15:08;;;;;;;5.05;3.20;;;10.50;99.90;;;;;;5144849;27;20199;-39
2021/05/18 11:17:42;;;;;;;13.35;5.75;;;10.50;99.90;;;;;;5146227;27;20207;-41
2021/05/18 11:20:23;;;;;;;7.80;6.93;;;10.50;99.90;;;;;;5145456;27;20210;-40
2021/05/18 11:23:21;;;;;;;7.35;4.00;;;10.50;99.90;;;;;;5125819;28;20261;-39
2021/05/18 11:25:55;;;;;;;7.38;3.38;;;10.60;99.90;;;;;;5127545;27;20192;-37
2021/05/18 11:28:28;;;;;;;6.70;3.08;;;10.50;99.90;;;;;;5135805;27;20203;-39
2021/05/18 11:31:01;;;;;;;4.63;2.70;;;10.50;99.90;;;;;;5145285;27;20217;-38
2021/05/18 11:33:34;;;;;;;3.55;2.60;;;10.50;99.90;;;;;;5145326;27;20199;-38
2021/05/18 11:36:10;;;;;;;5.55;2.65;;;10.50;99.90;;;;;;5140508;27;20231;-40
2021/05/18 11:38:42;;;;;;;5.50;2.95;;;10.60;99.90;;;;;;5124700;28;20206;-39
2021/05/18 11:41:19;;;;;;;5.53;3.00;;;10.50;99.90;;;;;;5126914;27;20223;-40
2021/05/18 11:43:51;;;;;;;7.00;2.80;;;10.60;99.90;;;;;;5144262;27;20241;-39
2021/05/18 11:46:22;;;;;;;5.70;3.00;;;10.50;99.90;;;;;;5143986;27;20258;-39
2021/05/18 11:49:00;;;;;;;4.45;3.00;;;10.50;99.90;;;;;;5144856;27;20210;-38
2021/05/18 11:51:34;;;;;;;6.13;3.90;;;10.60;99.90;;;;;;5145234;27;20223;-39
2021/05/18 11:54:27;;;;;;;6.32;2.58;;;10.60;99.90;;;;;;5144480;27;20199;-39
2021/05/18 11:57:00;;;;;;;7.65;2.97;;;10.50;99.90;;;;;;5145627;27;20244;-39
2021/05/18 11:59:36;;;;;;;6.15;3.50;;;10.50;99.90;;;;;;5135050;27;20211;-40
2021/05/18 12:02:07;;;;;;;8.90;2.95;;;10.60;99.90;;;;;;5144538;27;20663;-39
2021/05/18 12:04:40;;;;;;;6.70;2.92;;;10.60;99.90;;;;;;5144328;27;20196;-36
2021/05/18 12:07:12;;;;;;;6.10;3.10;;;10.60;99.90;;;;;;5144050;27;20203;-39
2021/05/18 12:09:44;;;;;;;7.55;3.60;;;10.60;99.90;;;;;;5144389;27;20199;-38
2021/05/18 12:12:15;;;;;;;5.20;3.20;;;10.50;99.90;;;;;;5144982;27;20194;-37
2021/05/18 12:14:47;;;;;;;5.00;2.97;;;10.60;99.90;;;;;;5143229;27;20657;-40
2021/05/18 12:17:26;;;;;;;7.40;2.85;;;10.60;99.90;;;;;;5144604;27;20227;-40
2021/05/18 12:19:58;;;;;;;11.05;3.25;;;10.60;99.90;;;;;;5143218;27;20230;-40
2021/05/18 12:22:29;;;;;;;7.35;4.10;;;10.70;99.90;;;;;;5145025;27;20256;-40
2021/05/18 12:24:59;;;;;;;11.88;3.70;;;10.70;99.90;;;;;;5144039;27;20331;-39
2021/05/18 12:27:30;;;;;;;4.78;3.20;;;10.70;99.90;;;;;;5139909;27;20187;-39
2021/05/18 12:30:02;;;;;;;3.88;2.90;;;10.70;99.90;;;;;;5143160;27;20235;-39
2021/05/18 12:32:36;;;;;;;6.28;3.85;;;10.60;99.90;;;;;;5144940;27;20207;-40
2021/05/18 12:35:20;;;;;;;3.95;2.42;;;10.70;99.90;;;;;;5143692;27;20227;-40
2021/05/18 12:37:53;;;;;;;5.35;3.05;;;10.70;99.90;;;;;;5143374;27;20215;-40
2021/05/18 12:40:31;;;;;;;4.50;3.40;;;10.70;99.90;;;;;;5144075;27;20248;-40
2021/05/18 12:43:13;;;;;;;6.32;3.95;;;10.70;99.90;;;;;;5144448;27;20215;-40
2021/05/18 12:45:44;;;;;;;6.00;3.53;;;10.70;99.90;;;;;;5143392;27;20195;-41
2021/05/18 12:48:15;;;;;;;8.73;3.05;;;10.70;99.90;;;;;;5144388;27;20198;-40
2021/05/18 12:50:50;;;;;;;5.50;3.47;;;10.70;99.90;;;;;;5143551;27;20199;-39
2021/05/18 12:53:25;;;;;;;4.50;2.75;;;10.70;99.90;;;;;;5144528;27;20224;-39
2021/05/18 12:55:58;;;;;;;5.38;3.03;;;10.70;99.90;;;;;;5138241;27;20234;-40
2021/05/18 12:58:30;;;;;;;5.15;3.58;;;10.70;99.90;;;;;;5123555;28;20784;-41
2021/05/18 13:01:08;;;;;;;5.30;2.70;;;10.70;99.90;;;;;;5142232;27;20213;-38
2021/05/18 13:03:40;;;;;;;7.95;3.30;;;10.70;99.90;;;;;;5143818;27;20324;-36
2021/05/18 13:06:12;;;;;;;4.20;2.85;;;10.70;99.90;;;;;;5143681;27;20206;-39
2021/05/18 13:08:44;;;;;;;8.05;2.88;;;10.70;99.90;;;;;;5139494;27;20243;-39
2021/05/18 13:12:10;;;;;;;4.07;2.78;;;10.70;99.90;;;;;;5144083;27;20218;-38
2021/05/18 13:14:07;;;;;;;5.38;3.58;;;10.80;99.90;;;;;;5142834;27;20191;-39
2021/05/18 13:16:38;;;;;;;6.95;3.22;;;10.80;99.90;;;;;;5143544;28;20215;-40
2021/05/18 13:19:11;;;;;;;5.80;2.90;;;10.80;99.90;;;;;;5143657;28;20191;-38
2021/05/18 13:21:54;;;;;;;7.70;3.50;;;10.80;99.90;;;;;;5143944;28;20318;-39
2021/05/18 13:26:25;;;;;;;7.50;3.00;;;10.80;99.90;;;;;;5143496;28;20203;-39
2021/05/18 13:27:17;;;;;;;4.85;3.22;;;10.80;99.90;;;;;;5131790;27;20219;-40
2021/05/18 13:29:48;;;;;;;7.03;3.30;;;10.80;99.90;;;;;;5135331;27;20199;-40
2021/05/18 13:32:18;;;;;;;5.43;3.70;;;10.80;99.90;;;;;;5148236;27;20240;-37
2021/05/18 13:34:49;;;;;;;4.68;3.05;;;10.80;99.90;;;;;;5143777;27;20195;-37
2021/05/18 13:37:21;;;;;;;5.10;3.40;;;10.80;99.90;;;;;;5132447;27;20191;-40
2021/05/18 13:40:10;;;;;;;6.63;2.85;;;10.80;99.90;;;;;;5148417;27;20206;-39
2021/05/18 13:42:40;;;;;;;13.07;4.03;;;10.80;99.90;;;;;;5147621;27;20232;-39
2021/05/18 13:45:11;;;;;;;8.65;3.72;;;10.70;99.90;;;;;;5146620;27;20210;-38
2021/05/18 13:48:01;;;;;;;4.93;3.20;;;10.80;99.90;;;;;;5147468;27;20295;-40
2021/05/18 13:50:32;;;;;;;6.18;3.35;;;10.90;99.90;;;;;;5146851;27;20260;-38
2021/05/18 13:53:05;;;;;;;8.52;3.97;;;10.80;99.90;;;;;;5126919;28;20199;-39
2021/05/18 13:55:36;;;;;;;5.10;3.33;;;10.90;99.90;;;;;;5139182;27;20200;-37
2021/05/18 13:58:06;;;;;;;6.70;3.75;;;10.90;99.90;;;;;;5142157;27;20276;-40
2021/05/18 14:00:37;;;;;;;6.88;3.33;;;11.00;99.90;;;;;;5146177;27;20199;-40
2021/05/18 14:03:07;;;;;;;5.55;3.50;;;11.00;99.90;;;;;;5145990;27;20219;-39
2021/05/18 14:05:38;;;;;;;6.50;3.60;;;10.90;99.90;;;;;;5146598;27;20204;-39
2021/05/18 14:08:31;;;;;;;6.05;3.28;;;11.00;99.90;;;;;;5147125;27;20232;-39
2021/05/18 14:11:05;;;;;;;5.95;3.60;;;10.90;99.90;;;;;;5148164;27;20639;-40
2021/05/18 14:13:37;;;;;;;7.60;3.17;;;10.90;99.90;;;;;;5146386;27;20207;-40
2021/05/18 14:16:09;;;;;;;6.13;3.05;;;11.00;99.90;;;;;;5146907;27;20218;-40
2021/05/18 14:18:40;;;;;;;6.97;2.80;;;11.40;99.90;;;;;;5146556;27;20199;-37
2021/05/18 14:21:10;;;;;;;6.68;3.25;;;11.70;99.90;;;;;;5147000;27;20313;-38
2021/05/18 14:23:46;;;;;;;7.22;3.55;;;12.00;99.90;;;;;;5138494;27;20203;-40
2021/05/18 14:26:16;;;;;;;6.10;3.63;;;12.20;99.90;;;;;;5141043;27;20195;-41
2021/05/18 14:28:47;;;;;;;3.23;2.80;;;13.20;99.90;;;;;;5125599;28;20450;-40
2021/05/18 14:31:18;;;;;;;6.67;2.73;;;13.70;99.90;;;;;;5145926;27;20646;-41
2021/05/18 14:33:48;;;;;;;9.37;3.17;;;14.90;99.90;;;;;;5146591;27;20788;-44
2021/05/18 14:36:19;;;;;;;4.10;3.00;;;16.70;99.90;;;;;;5146917;27;20463;-41
2021/05/18 14:39:07;;;;;;;6.03;2.70;;;18.40;96.70;;;;;;5146495;27;20456;-43
2021/05/18 14:44:27;;;;;;;5.63;2.43;;;21.00;86.60;;;;;;5145830;27;20471;-41
2021/05/18 14:56:01;;;;;;;4.10;2.27;;;20.20;84.00;;;;;;5135265;27;20584;-42
2021/05/18 14:58:34;;;;;;;5.10;2.40;;;20.00;83.00;;;;;;5128750;27;20419;-42
2021/05/18 15:01:06;;;;;;;3.77;2.73;;;18.80;88.20;;;;;;5147018;27;20452;-42
2021/05/18 15:03:36;;;;;;;2.63;2.43;;;18.60;90.00;;;;;;5145585;27;20510;-42
2021/05/18 15:06:10;;;;;;;4.03;2.20;;;19.50;89.30;;;;;;5145974;27;20400;-42
2021/05/18 15:08:43;;;;;;;2.10;1.60;;;21.30;83.40;;;;;;5146812;27;20452;-42
2021/05/18 15:11:15;;;;;;;4.37;2.43;;;21.10;79.20;;;;;;5146522;27;20566;-42
2021/05/18 15:13:46;;;;;;;3.40;2.10;;;21.80;75.50;;;;;;5144146;27;20474;-42
2021/05/18 15:16:16;;;;;;;3.50;2.40;;;21.80;75.20;;;;;;5145850;27;20441;-42
2021/05/18 15:18:50;;;;;;;3.20;2.30;;;20.80;77.30;;;;;;5145703;27;20420;-42
2021/05/18 15:21:21;;;;;;;2.60;2.17;;;19.70;79.10;;;;;;5145310;27;20444;-42
2021/05/18 15:23:52;;;;;;;3.70;2.10;;;19.00;83.00;;;;;;5145911;27;20529;-42
2021/05/18 15:26:24;;;;;;;3.30;2.73;;;20.70;80.20;;;;;;5139883;27;20465;-41
2021/05/18 15:28:54;;;;;;;4.80;2.20;;;22.90;69.60;;;;;;5141718;27;20430;-43
2021/05/18 15:31:25;;;;;;;3.40;2.13;;;24.60;67.30;;;;;;5144642;27;20469;-43
2021/05/18 15:33:56;;;;;;;3.83;2.13;;;25.10;63.30;;;;;;5137416;27;20469;-44
2021/05/18 15:36:26;;;;;;;2.70;2.07;;;27.10;55.60;;;;;;5143859;27;20509;-41
2021/05/18 15:38:57;;;;;;;2.90;2.33;;;26.90;54.10;;;;;;5145084;27;20435;-43
2021/05/18 15:41:28;;;;;;;3.63;2.10;;;27.50;51.10;;;;;;5145661;27;20459;-44
2021/05/18 15:43:59;;;;;;;3.17;1.70;;;25.30;56.70;;;;;;5143344;27;20458;-43
2021/05/18 15:46:31;;;;;;;2.23;1.93;;;23.50;60.40;;;;;;5144225;27;20465;-43
2021/05/18 15:49:02;;;;;;;2.10;2.00;;;24.70;59.30;;;;;;5139520;27;20471;-43
2021/05/18 15:51:33;;;;;;;3.57;2.10;;;25.00;56.00;;;;;;5144668;27;20473;-43
2021/05/18 15:54:04;;;;;;;2.90;2.30;;;24.10;56.20;;;;;;5136361;27;20456;-43
2021/05/18 15:56:36;;;;;;;4.57;2.53;;;22.10;60.40;;;;;;5144255;27;21048;-43
2021/05/18 15:59:07;;;;;;;5.00;2.27;;;20.30;65.20;;;;;;5142786;27;20468;-43
2021/05/18 16:01:39;;;;;;;3.50;2.20;;;19.00;69.20;;;;;;5144149;27;20444;-43
2021/05/18 16:04:11;;;;;;;3.13;1.90;;;18.80;72.60;;;;;;5130389;27;20450;-42
2021/05/18 16:06:43;;;;;;;5.77;2.60;;;20.10;70.20;;;;;;5136387;27;20419;-42
2021/05/18 16:09:14;;;;;;;2.80;1.60;;;19.80;71.10;;;;;;5144635;27;20422;-42
2021/05/18 16:11:46;;;;;;;5.03;2.00;;;21.10;67.10;;;;;;5143839;27;20438;-43
2021/05/18 16:14:16;;;;;;;2.33;2.00;;;21.70;62.80;;;;;;5142296;27;20419;-42
2021/05/18 16:16:48;;;;;;;4.07;2.47;;;21.90;63.20;;;;;;5143244;27;20449;-42
2021/05/18 16:19:19;;;;;;;2.20;1.63;;;21.60;62.40;;;;;;5143893;27;20441;-42
2021/05/18 16:21:51;;;;;;;2.20;1.60;;;20.80;64.20;;;;;;5144411;27;20445;-42
2021/05/18 16:24:23;;;;;;;2.30;1.40;;;20.10;65.40;;;;;;5143710;27;20502;-42
2021/05/18 16:26:54;;;;;;;3.87;1.73;;;20.60;67.40;;;;;;5144811;27;20732;-41
2021/05/18 16:29:27;;;;;;;4.63;1.80;;;20.80;62.80;;;;;;5142968;27;20427;-41
2021/05/18 16:31:58;;;;;;;3.00;1.87;;;20.40;64.20;;;;;;5127676;27;20522;-41
2021/05/18 16:34:29;;;;;;;3.70;1.77;;;19.60;67.00;;;;;;5130807;27;20486;-41
2021/05/18 16:37:00;;;;;;;2.03;1.70;;;18.30;71.00;;;;;;5139271;27;20469;-41
2021/05/18 16:39:31;;;;;;;2.80;1.80;;;17.70;73.30;;;;;;5143694;27;20420;-42
2021/05/18 16:42:03;;;;;;;3.23;2.00;;;17.10;76.40;;;;;;5136064;27;20504;-41
2021/05/18 16:44:33;;;;;;;4.40;2.00;;;16.80;80.80;;;;;;5122819;27;20484;-42
2021/05/18 16:47:04;;;;;;;2.67;2.10;;;16.40;81.80;;;;;;5139594;27;20464;-42
2021/05/18 16:49:35;;;;;;;2.97;2.50;;;16.20;82.50;;;;;;5141127;27;20436;-42
2021/05/18 16:52:06;;;;;;;2.27;1.50;;;16.30;82.80;;;;;;5139606;27;20436;-42
2021/05/18 16:54:36;;;;;;;2.80;1.83;;;16.30;85.00;;;;;;5139651;27;20453;-40
2021/05/18 16:57:08;;;;;;;1.87;1.53;;;17.00;83.90;;;;;;5142698;27;20440;-42
2021/05/18 16:59:40;;;;;;;2.43;1.60;;;17.80;78.10;;;;;;5142252;27;20468;-43
2021/05/18 17:02:10;;;;;;;3.33;1.83;;;18.70;73.30;;;;;;5142962;27;20814;-41
2021/05/18 17:04:40;;;;;;;2.00;1.80;;;18.80;72.90;;;;;;5140384;27;20501;-43
2021/05/18 17:07:11;;;;;;;2.03;1.80;;;18.40;73.90;;;;;;5144101;27;21114;-42
2021/05/18 17:09:42;;;;;;;4.50;1.97;;;17.90;75.00;;;;;;5142703;27;20440;-42
2021/05/18 17:12:18;;;;;;;3.53;1.47;;;18.90;77.40;;;;;;5144531;27;20440;-42
2021/05/18 17:14:49;;;;;;;2.47;1.70;;;19.50;72.30;;;;;;5141468;27;20453;-41
2021/05/18 17:17:27;;;;;;;2.47;1.80;;;21.40;66.30;;;;;;5143341;27;20596;-41
2021/05/18 17:19:59;;;;;;;2.73;1.63;;;21.90;61.40;;;;;;5140554;28;20548;-42
2021/05/18 17:22:29;;;;;;;3.47;1.73;;;22.30;59.20;;;;;;5138611;28;20464;-41
2021/05/18 17:24:59;;;;;;;2.33;1.60;;;22.80;57.20;;;;;;5142761;28;20459;-42
2021/05/18 17:27:31;;;;;;;5.50;1.70;;;21.90;58.60;;;;;;5141559;28;20448;-42
2021/05/18 17:30:02;;;;;;;3.10;1.83;;;20.40;63.00;;;;;;5142293;27;20445;-42
2021/05/18 17:32:32;;;;;;;2.70;1.60;;;18.60;69.80;;;;;;5143330;28;20449;-41
2021/05/18 17:35:03;;;;;;;2.20;1.30;;;18.40;70.60;;;;;;5142105;28;20814;-42
2021/05/18 17:37:34;;;;;;;1.63;1.03;;;18.10;71.80;;;;;;5142331;28;20452;-41
2021/05/18 17:40:07;;;;;;;7.90;0.97;;;17.60;72.30;;;;;;5141584;27;20439;-42